Time,TemperatureF,DewpointF,PressureIn,WindDirection,WindDirectionDegrees,WindSpeedMPH,WindSpeedGustMPH,Humidity,HourlyPrecipIn,Conditions,Clouds,dailyrainin,SoftwareType,DateUTC
2013-04-27 00:00:00,49.6,46.5,30.32,NNW,333,0.0,0.0,89,0.00,,,0.00,Wunderground v.1.15,2013-04-27 04:00:00,
2013-04-27 00:02:00,49.6,46.5,30.32,NNW,333,0.0,0.0,89,0.00,,,0.00,Wunderground v.1.15,2013-04-27 04:02:00,
2013-04-27 00:06:00,49.4,46.3,30.32,NNW,333,0.0,0.0,89,0.00,,,0.00,Wunderground v.1.15,2013-04-27 04:06:00,
2013-04-27 00:10:00,49.4,46.3,30.32,NNW,333,0.0,0.0,89,0.00,,,0.00,Wunderground v.1.15,2013-04-27 04:10:00,
2013-04-27 00:16:00,49.2,46.1,30.32,NNW,333,0.0,0.0,89,0.00,,,0.00,Wunderground v.1.15,2013-04-27 04:16:00,
2013-04-27 00:22:00,49.2,46.1,30.32,NNW,333,0.0,0.0,89,0.00,,,0.00,Wunderground v.1.15,2013-04-27 04:22:00,
2013-04-27 00:26:00,49.2,46.7,30.32,NNW,333,0.0,0.0,91,0.00,,,0.00,Wunderground v.1.15,2013-04-27 04:26:00,
2013-04-27 00:32:00,49.1,46.3,30.33,NNW,333,0.0,0.0,90,0.00,,,0.00,Wunderground v.1.15,2013-04-27 04:32:00,
2013-04-27 00:38:00,49.0,46.2,30.33,NNW,333,0.0,0.0,90,0.00,,,0.00,Wunderground v.1.15,2013-04-27 04:38:00,
2013-04-27 00:44:00,49.0,45.6,30.33,NNW,333,0.0,0.0,88,0.00,,,0.00,Wunderground v.1.15,2013-04-27 04:44:00,
2013-04-27 00:50:00,49.0,45.3,30.33,NNW,333,0.0,0.0,87,0.00,,,0.00,Wunderground v.1.15,2013-04-27 04:50:00,
2013-04-27 00:56:00,49.1,45.4,30.33,NNW,333,0.0,0.0,87,0.00,,,0.00,Wunderground v.1.15,2013-04-27 04:56:00,
2013-04-27 01:02:00,49.4,45.7,30.33,NNW,333,0.0,0.0,87,0.00,,,0.00,Wunderground v.1.15,2013-04-27 05:02:00,
2013-04-27 01:08:00,49.7,46.0,30.34,NNW,333,0.0,0.0,87,0.00,,,0.00,Wunderground v.1.15,2013-04-27 05:08:00,
2013-04-27 01:14:00,49.9,46.2,30.34,NNW,333,0.0,0.0,87,0.00,,,0.00,Wunderground v.1.15,2013-04-27 05:14:00,
2013-04-27 01:20:00,50.0,46.6,30.34,NNW,333,0.0,0.0,88,0.00,,,0.00,Wunderground v.1.15,2013-04-27 05:20:00,
2013-04-27 01:26:00,50.0,46.6,30.34,NNW,333,0.0,0.0,88,0.00,,,0.00,Wunderground v.1.15,2013-04-27 05:26:00,
2013-04-27 01:32:00,50.1,47.0,30.34,NNW,333,0.0,0.0,89,0.00,,,0.00,Wunderground v.1.15,2013-04-27 05:32:00,
2013-04-27 01:38:00,50.1,47.0,30.34,NNW,333,0.0,0.0,89,0.00,,,0.00,Wunderground v.1.15,2013-04-27 05:38:00,
2013-04-27 01:44:00,50.1,46.7,30.33,NNW,333,0.0,0.0,88,0.00,,,0.00,Wunderground v.1.15,2013-04-27 05:44:00,
2013-04-27 01:50:00,50.3,47.2,30.33,NNW,333,0.0,0.0,89,0.00,,,0.00,Wunderground v.1.15,2013-04-27 05:50:00,
2013-04-27 01:56:00,50.4,47.3,30.33,NNW,333,0.0,0.0,89,0.00,,,0.00,Wunderground v.1.15,2013-04-27 05:56:00,
2013-04-27 02:02:00,50.6,47.8,30.33,NNW,333,0.0,0.0,90,0.00,,,0.00,Wunderground v.1.15,2013-04-27 06:02:00,
2013-04-27 02:08:00,51.1,47.1,30.33,NNW,333,0.0,0.0,86,0.00,,,0.00,Wunderground v.1.15,2013-04-27 06:08:00,
2013-04-27 02:14:00,51.3,47.6,30.33,NNW,333,0.0,0.0,87,0.00,,,0.00,Wunderground v.1.15,2013-04-27 06:14:00,
2013-04-27 02:20:00,51.4,47.4,30.33,NNW,333,0.0,0.0,86,0.00,,,0.00,Wunderground v.1.15,2013-04-27 06:20:00,
2013-04-27 02:26:00,51.5,47.5,30.34,NNW,333,0.0,0.0,86,0.00,,,0.00,Wunderground v.1.15,2013-04-27 06:26:00,
2013-04-27 02:32:00,51.7,47.6,30.33,NNW,333,0.0,0.0,86,0.00,,,0.00,Wunderground v.1.15,2013-04-27 06:32:00,
2013-04-27 02:38:00,51.8,48.1,30.34,NNW,333,0.0,0.0,87,0.00,,,0.00,Wunderground v.1.15,2013-04-27 06:38:00,
2013-04-27 02:44:00,51.8,47.4,30.34,NNW,333,0.0,0.0,85,0.00,,,0.00,Wunderground v.1.15,2013-04-27 06:44:00,
2013-04-27 02:50:00,51.9,47.5,30.34,NNW,333,0.0,0.0,85,0.00,,,0.00,Wunderground v.1.15,2013-04-27 06:50:00,
2013-04-27 02:56:00,52.0,47.6,30.33,NNW,333,0.0,0.0,85,0.00,,,0.00,Wunderground v.1.15,2013-04-27 06:56:00,
2013-04-27 03:02:00,52.0,47.3,30.33,NNW,333,0.0,0.0,84,0.00,,,0.00,Wunderground v.1.15,2013-04-27 07:02:00,
2013-04-27 03:08:00,51.9,47.2,30.33,NNW,333,0.0,0.0,84,0.00,,,0.00,Wunderground v.1.15,2013-04-27 07:08:00,
2013-04-27 03:14:00,51.9,46.9,30.33,NNW,333,0.0,0.0,83,0.00,,,0.00,Wunderground v.1.15,2013-04-27 07:14:00,
2013-04-27 03:20:00,51.8,47.1,30.33,NNW,333,0.0,0.0,84,0.00,,,0.00,Wunderground v.1.15,2013-04-27 07:20:00,
2013-04-27 03:26:00,51.9,47.5,30.33,NNW,333,0.0,0.0,85,0.00,,,0.00,Wunderground v.1.15,2013-04-27 07:26:00,
2013-04-27 03:32:00,51.8,47.1,30.33,NNW,333,0.0,0.0,84,0.00,,,0.00,Wunderground v.1.15,2013-04-27 07:32:00,
2013-04-27 03:38:00,51.7,46.4,30.34,NNW,333,0.0,0.0,82,0.00,,,0.00,Wunderground v.1.15,2013-04-27 07:38:00,
2013-04-27 03:44:00,51.6,46.3,30.33,NNW,333,0.0,0.0,82,0.00,,,0.00,Wunderground v.1.15,2013-04-27 07:44:00,
2013-04-27 03:50:00,51.6,46.6,30.33,NNW,333,0.0,0.0,83,0.00,,,0.00,Wunderground v.1.15,2013-04-27 07:50:00,
2013-04-27 03:56:00,51.6,46.9,30.34,NNW,333,0.0,0.0,84,0.00,,,0.00,Wunderground v.1.15,2013-04-27 07:56:00,
2013-04-27 04:02:00,51.5,46.5,30.33,NNW,333,0.0,0.0,83,0.00,,,0.00,Wunderground v.1.15,2013-04-27 08:02:00,
2013-04-27 04:08:00,51.5,47.1,30.33,NNW,333,0.0,0.0,85,0.00,,,0.00,Wunderground v.1.15,2013-04-27 08:08:00,
2013-04-27 04:14:00,51.5,46.8,30.33,NNW,333,0.0,0.0,84,0.00,,,0.00,Wunderground v.1.15,2013-04-27 08:14:00,
2013-04-27 04:20:00,51.4,46.4,30.32,NNW,333,0.0,0.0,83,0.00,,,0.00,Wunderground v.1.15,2013-04-27 08:20:00,
2013-04-27 04:26:00,51.4,46.4,30.32,NNW,333,0.0,0.0,83,0.00,,,0.00,Wunderground v.1.15,2013-04-27 08:26:00,
2013-04-27 04:32:00,51.4,46.4,30.32,NNW,333,0.0,0.0,83,0.00,,,0.00,Wunderground v.1.15,2013-04-27 08:32:00,
2013-04-27 04:38:00,51.4,46.7,30.32,NNW,333,0.0,0.0,84,0.00,,,0.00,Wunderground v.1.15,2013-04-27 08:38:00,
2013-04-27 04:44:00,51.3,46.9,30.32,NNW,333,0.0,0.0,85,0.00,,,0.00,Wunderground v.1.15,2013-04-27 08:44:00,
2013-04-27 04:50:00,51.3,46.6,30.32,NNW,333,0.0,0.0,84,0.00,,,0.00,Wunderground v.1.15,2013-04-27 08:50:00,
2013-04-27 04:56:00,51.1,46.4,30.32,NNW,333,0.0,0.0,84,0.00,,,0.00,Wunderground v.1.15,2013-04-27 08:56:00,
2013-04-27 05:02:00,51.0,46.6,30.32,NNW,333,0.0,0.0,85,0.00,,,0.00,Wunderground v.1.15,2013-04-27 09:02:00,
2013-04-27 05:08:00,51.0,46.6,30.32,NNW,333,0.0,0.0,85,0.00,,,0.00,Wunderground v.1.15,2013-04-27 09:08:00,
2013-04-27 05:14:00,50.9,46.6,30.31,NNW,333,0.0,0.0,85,0.00,,,0.00,Wunderground v.1.15,2013-04-27 09:14:00,
2013-04-27 05:20:00,50.8,46.5,30.31,NNW,333,0.0,0.0,85,0.00,,,0.00,Wunderground v.1.15,2013-04-27 09:20:00,
2013-04-27 05:26:00,50.7,46.4,30.31,NNW,333,0.0,0.0,85,0.00,,,0.00,Wunderground v.1.15,2013-04-27 09:26:00,
2013-04-27 05:32:00,50.6,46.3,30.31,NNW,333,0.0,0.0,85,0.00,,,0.00,Wunderground v.1.15,2013-04-27 09:32:00,
2013-04-27 05:38:00,50.5,46.2,30.31,NNW,333,0.0,0.0,85,0.00,,,0.00,Wunderground v.1.15,2013-04-27 09:38:00,
2013-04-27 05:44:00,50.4,46.1,30.31,NNW,333,0.0,0.0,85,0.00,,,0.00,Wunderground v.1.15,2013-04-27 09:44:00,
2013-04-27 05:50:00,50.3,46.3,30.31,NNW,333,0.0,0.0,86,0.00,,,0.00,Wunderground v.1.15,2013-04-27 09:50:00,
2013-04-27 05:56:00,50.2,46.5,30.32,NNW,333,0.0,0.0,87,0.00,,,0.00,Wunderground v.1.15,2013-04-27 09:56:00,
2013-04-27 06:02:00,50.2,46.5,30.32,NNW,333,0.0,0.0,87,0.00,,,0.00,Wunderground v.1.15,2013-04-27 10:02:00,
2013-04-27 06:08:00,50.1,46.4,30.32,NNW,333,0.0,0.0,87,0.00,,,0.00,Wunderground v.1.15,2013-04-27 10:08:00,
2013-04-27 06:14:00,50.1,46.7,30.33,NNW,333,0.0,0.0,88,0.00,,,0.00,Wunderground v.1.15,2013-04-27 10:14:00,
2013-04-27 06:20:00,50.1,46.7,30.33,NNW,333,0.0,0.0,88,0.00,,,0.00,Wunderground v.1.15,2013-04-27 10:20:00,
2013-04-27 06:26:00,50.0,46.3,30.34,NNW,333,0.0,0.0,87,0.00,,,0.00,Wunderground v.1.15,2013-04-27 10:26:00,
2013-04-27 06:32:00,50.0,46.3,30.34,NNW,333,0.0,0.0,87,0.00,,,0.00,Wunderground v.1.15,2013-04-27 10:32:00,
2013-04-27 06:38:00,50.0,46.3,30.34,NNW,333,0.0,0.0,87,0.00,,,0.00,Wunderground v.1.15,2013-04-27 10:38:00,
2013-04-27 06:44:00,50.0,46.3,30.34,NNW,333,0.0,0.0,87,0.00,,,0.00,Wunderground v.1.15,2013-04-27 10:44:00,
2013-04-27 06:50:00,50.0,46.6,30.34,NNW,333,0.0,0.0,88,0.00,,,0.00,Wunderground v.1.15,2013-04-27 10:50:00,
2013-04-27 06:56:00,49.9,46.5,30.34,NNW,333,0.0,0.0,88,0.00,,,0.00,Wunderground v.1.15,2013-04-27 10:56:00,
2013-04-27 07:02:00,49.9,46.8,30.34,NNW,333,0.0,0.0,89,0.00,,,0.00,Wunderground v.1.15,2013-04-27 11:02:00,
2013-04-27 07:08:00,50.0,46.9,30.34,NNW,333,0.0,0.0,89,0.00,,,0.00,Wunderground v.1.15,2013-04-27 11:08:00,
2013-04-27 07:14:00,50.1,47.0,30.34,NNW,333,0.0,0.0,89,0.00,,,0.00,Wunderground v.1.15,2013-04-27 11:14:00,
2013-04-27 07:20:00,50.3,47.5,30.34,NNW,333,0.0,0.0,90,0.00,,,0.00,Wunderground v.1.15,2013-04-27 11:20:00,
2013-04-27 07:26:00,50.5,47.4,30.35,NNW,333,0.0,0.0,89,0.00,,,0.00,Wunderground v.1.15,2013-04-27 11:26:00,
2013-04-27 07:32:00,50.5,47.4,30.35,NNW,333,0.0,0.0,89,0.00,,,0.00,Wunderground v.1.15,2013-04-27 11:32:00,
2013-04-27 07:38:00,50.6,47.5,30.35,NNW,333,0.0,0.0,89,0.00,,,0.00,Wunderground v.1.15,2013-04-27 11:38:00,
2013-04-27 07:44:00,50.6,47.2,30.35,NNW,333,0.0,0.0,88,0.00,,,0.00,Wunderground v.1.15,2013-04-27 11:44:00,
2013-04-27 07:50:00,50.7,47.6,30.35,NNW,333,0.0,0.0,89,0.00,,,0.00,Wunderground v.1.15,2013-04-27 11:50:00,
2013-04-27 07:56:00,50.9,48.1,30.35,NNW,333,0.0,0.0,90,0.00,,,0.00,Wunderground v.1.15,2013-04-27 11:56:00,
2013-04-27 08:02:00,51.1,48.3,30.35,NNW,333,0.0,0.0,90,0.00,,,0.00,Wunderground v.1.15,2013-04-27 12:02:00,
2013-04-27 08:08:00,51.4,48.6,30.36,NNW,333,0.0,0.0,90,0.00,,,0.00,Wunderground v.1.15,2013-04-27 12:08:00,
2013-04-27 08:14:00,51.7,48.3,30.36,NNW,333,0.0,0.0,88,0.00,,,0.00,Wunderground v.1.15,2013-04-27 12:14:00,
2013-04-27 08:20:00,52.0,48.3,30.35,NNW,333,0.0,0.0,87,0.00,,,0.00,Wunderground v.1.15,2013-04-27 12:20:00,
2013-04-27 08:26:00,52.4,48.9,30.35,NNW,333,0.0,0.0,88,0.00,,,0.00,Wunderground v.1.15,2013-04-27 12:26:00,
2013-04-27 08:32:00,52.9,48.8,30.36,NNW,333,0.0,0.0,86,0.00,,,0.00,Wunderground v.1.15,2013-04-27 12:32:00,
2013-04-27 08:38:00,53.3,49.5,30.35,NNW,333,0.0,0.0,87,0.00,,,0.00,Wunderground v.1.15,2013-04-27 12:38:00,
2013-04-27 08:44:00,53.9,49.5,30.36,NNW,333,0.0,1.0,85,0.00,,,0.00,Wunderground v.1.15,2013-04-27 12:44:00,
2013-04-27 08:50:00,54.6,49.9,30.35,NNW,333,0.0,0.0,84,0.00,,,0.00,Wunderground v.1.15,2013-04-27 12:50:00,
2013-04-27 08:56:00,55.3,50.5,30.35,NNW,333,0.0,0.0,84,0.00,,,0.00,Wunderground v.1.15,2013-04-27 12:56:00,
2013-04-27 09:02:00,56.0,50.6,30.35,NNW,333,0.0,0.0,82,0.00,,,0.00,Wunderground v.1.15,2013-04-27 13:02:00,
2013-04-27 09:08:00,56.6,50.2,30.35,NNW,333,0.0,1.0,79,0.00,,,0.00,Wunderground v.1.15,2013-04-27 13:08:00,
2013-04-27 09:14:00,57.2,51.4,30.35,NNW,333,0.0,0.0,81,0.00,,,0.00,Wunderground v.1.15,2013-04-27 13:14:00,
2013-04-27 09:20:00,57.7,50.9,30.35,NNW,333,0.0,0.0,78,0.00,,,0.00,Wunderground v.1.15,2013-04-27 13:20:00,
2013-04-27 09:26:00,58.2,50.3,30.35,NNW,333,0.0,0.0,75,0.00,,,0.00,Wunderground v.1.15,2013-04-27 13:26:00,
2013-04-27 09:32:00,58.8,50.5,30.34,NNW,333,0.0,0.0,74,0.00,,,0.00,Wunderground v.1.15,2013-04-27 13:32:00,
2013-04-27 09:38:00,59.3,49.5,30.34,ENE,62,0.0,1.0,70,0.00,,,0.00,Wunderground v.1.15,2013-04-27 13:38:00,
2013-04-27 09:44:00,59.8,48.8,30.34,ENE,62,0.0,0.0,67,0.00,,,0.00,Wunderground v.1.15,2013-04-27 13:44:00,
2013-04-27 09:50:00,60.5,48.7,30.34,West,280,0.0,0.0,65,0.00,,,0.00,Wunderground v.1.15,2013-04-27 13:50:00,
2013-04-27 09:56:00,61.1,50.8,30.34,SSW,194,1.0,2.0,69,0.00,,,0.00,Wunderground v.1.15,2013-04-27 13:56:00,
2013-04-27 10:02:00,61.9,49.2,30.34,SSW,207,0.0,0.0,63,0.00,,,0.00,Wunderground v.1.15,2013-04-27 14:02:00,
2013-04-27 10:08:00,62.8,47.3,30.34,WNW,300,0.0,1.0,57,0.00,,,0.00,Wunderground v.1.15,2013-04-27 14:08:00,
2013-04-27 10:14:00,63.9,49.7,30.34,East,89,1.0,1.0,60,0.00,,,0.00,Wunderground v.1.15,2013-04-27 14:14:00,
2013-04-27 10:20:00,64.6,48.5,30.34,NNE,19,1.0,1.0,56,0.00,,,0.00,Wunderground v.1.15,2013-04-27 14:20:00,
2013-04-27 10:26:00,65.4,50.2,30.34,ENE,66,0.0,1.0,58,0.00,,,0.00,Wunderground v.1.15,2013-04-27 14:26:00,
2013-04-27 10:32:00,66.3,50.6,30.34,ESE,113,0.0,0.0,57,0.00,,,0.00,Wunderground v.1.15,2013-04-27 14:32:00,
2013-04-27 10:38:00,66.6,46.3,30.34,SE,133,1.0,1.0,48,0.00,,,0.00,Wunderground v.1.15,2013-04-27 14:38:00,
2013-04-27 10:44:00,66.9,48.7,30.34,NE,44,1.0,2.0,52,0.00,,,0.00,Wunderground v.1.15,2013-04-27 14:44:00,
2013-04-27 10:50:00,67.3,47.5,30.34,ENE,65,1.0,2.0,49,0.00,,,0.00,Wunderground v.1.15,2013-04-27 14:50:00,
2013-04-27 10:56:00,67.5,45.4,30.34,ENE,59,1.0,2.0,45,0.00,,,0.00,Wunderground v.1.15,2013-04-27 14:56:00,
2013-04-27 11:02:00,67.6,46.1,30.34,East,88,1.0,1.0,46,0.00,,,0.00,Wunderground v.1.15,2013-04-27 15:02:00,
2013-04-27 11:08:00,67.6,46.1,30.34,ESE,104,2.0,2.0,46,0.00,,,0.00,Wunderground v.1.15,2013-04-27 15:08:00,
2013-04-27 11:14:00,67.7,45.0,30.34,ESE,104,2.0,2.0,44,0.00,,,0.00,Wunderground v.1.15,2013-04-27 15:14:00,
2013-04-27 11:20:00,68.1,44.1,30.34,NE,36,1.0,1.0,42,0.00,,,0.00,Wunderground v.1.15,2013-04-27 15:20:00,
2013-04-27 11:26:00,68.6,45.8,30.33,SSE,157,1.0,1.0,44,0.00,,,0.00,Wunderground v.1.15,2013-04-27 15:26:00,
2013-04-27 11:32:00,69.1,45.0,30.33,WSW,243,1.0,1.0,42,0.00,,,0.00,Wunderground v.1.15,2013-04-27 15:32:00,
2013-04-27 11:38:00,69.7,45.6,30.33,SE,136,1.0,2.0,42,0.00,,,0.00,Wunderground v.1.15,2013-04-27 15:38:00,
2013-04-27 11:44:00,70.4,46.2,30.33,NNW,335,1.0,1.0,42,0.00,,,0.00,Wunderground v.1.15,2013-04-27 15:44:00,
2013-04-27 11:50:00,70.9,46.7,30.33,NE,50,1.0,1.0,42,0.00,,,0.00,Wunderground v.1.15,2013-04-27 15:50:00,
2013-04-27 11:56:00,71.2,43.6,30.33,ESE,109,1.0,3.0,37,0.00,,,0.00,Wunderground v.1.15,2013-04-27 15:56:00,
2013-04-27 12:02:00,71.0,43.4,30.33,SE,127,1.0,1.0,37,0.00,,,0.00,Wunderground v.1.15,2013-04-27 16:02:00,
2013-04-27 12:08:00,71.4,43.8,30.32,East,101,1.0,2.0,37,0.00,,,0.00,Wunderground v.1.15,2013-04-27 16:08:00,
2013-04-27 12:14:00,71.3,43.7,30.32,East,91,1.0,1.0,37,0.00,,,0.00,Wunderground v.1.15,2013-04-27 16:14:00,
2013-04-27 12:20:00,71.6,44.6,30.32,East,86,1.0,1.0,38,0.00,,,0.00,Wunderground v.1.15,2013-04-27 16:20:00,
2013-04-27 12:26:00,71.7,44.7,30.32,NE,51,1.0,1.0,38,0.00,,,0.00,Wunderground v.1.15,2013-04-27 16:26:00,
2013-04-27 12:32:00,71.7,42.6,30.31,East,81,1.0,1.0,35,0.00,,,0.00,Wunderground v.1.15,2013-04-27 16:32:00,
2013-04-27 12:38:00,71.9,45.6,30.31,NW,325,1.0,1.0,39,0.00,,,0.00,Wunderground v.1.15,2013-04-27 16:38:00,
2013-04-27 12:44:00,72.1,45.8,30.31,NW,321,1.0,2.0,39,0.00,,,0.00,Wunderground v.1.15,2013-04-27 16:44:00,
2013-04-27 12:50:00,72.1,44.4,30.30,ESE,105,1.0,3.0,37,0.00,,,0.00,Wunderground v.1.15,2013-04-27 16:50:00,
2013-04-27 12:56:00,71.4,43.8,30.30,NNW,332,2.0,3.0,37,0.00,,,0.00,Wunderground v.1.15,2013-04-27 16:56:00,
2013-04-27 13:02:00,71.5,43.1,30.30,East,96,2.0,2.0,36,0.00,,,0.00,Wunderground v.1.15,2013-04-27 17:02:00,
2013-04-27 13:08:00,72.0,46.3,30.30,East,96,1.0,2.0,40,0.00,,,0.00,Wunderground v.1.15,2013-04-27 17:08:00,
2013-04-27 13:14:00,72.5,44.0,30.29,East,96,1.0,1.0,36,0.00,,,0.00,Wunderground v.1.15,2013-04-27 17:14:00,
2013-04-27 13:20:00,72.3,42.3,30.29,East,96,1.0,1.0,34,0.00,,,0.00,Wunderground v.1.15,2013-04-27 17:20:00,
2013-04-27 13:26:00,72.5,44.7,30.29,ESE,118,1.0,1.0,37,0.00,,,0.00,Wunderground v.1.15,2013-04-27 17:26:00,
2013-04-27 13:32:00,72.4,46.0,30.29,ESE,120,1.0,2.0,39,0.00,,,0.00,Wunderground v.1.15,2013-04-27 17:32:00,
2013-04-27 13:38:00,72.8,43.5,30.28,ESE,119,1.0,2.0,35,0.00,,,0.00,Wunderground v.1.15,2013-04-27 17:38:00,
2013-04-27 13:44:00,72.9,44.4,30.29,SSW,201,1.0,1.0,36,0.00,,,0.00,Wunderground v.1.15,2013-04-27 17:44:00,
2013-04-27 13:50:00,72.7,44.9,30.28,SE,146,1.0,1.0,37,0.00,,,0.00,Wunderground v.1.15,2013-04-27 17:50:00,
2013-04-27 13:56:00,72.8,46.4,30.28,West,273,1.0,2.0,39,0.00,,,0.00,Wunderground v.1.15,2013-04-27 17:56:00,
2013-04-27 14:02:00,73.2,45.4,30.28,NE,46,1.0,1.0,37,0.00,,,0.00,Wunderground v.1.15,2013-04-27 18:02:00,
2013-04-27 14:08:00,73.4,46.9,30.28,WSW,247,1.0,1.0,39,0.00,,,0.00,Wunderground v.1.15,2013-04-27 18:08:00,
2013-04-27 14:14:00,73.7,45.8,30.28,NW,316,1.0,2.0,37,0.00,,,0.00,Wunderground v.1.15,2013-04-27 18:14:00,
2013-04-27 14:20:00,73.0,46.6,30.28,ENE,68,1.0,1.0,39,0.00,,,0.00,Wunderground v.1.15,2013-04-27 18:20:00,
2013-04-27 14:26:00,72.8,44.3,30.28,ENE,68,1.0,2.0,36,0.00,,,0.00,Wunderground v.1.15,2013-04-27 18:26:00,
2013-04-27 14:32:00,72.6,49.4,30.28,ENE,67,1.0,1.0,44,0.00,,,0.00,Wunderground v.1.15,2013-04-27 18:32:00,
2013-04-27 14:38:00,72.4,46.7,30.28,ENE,67,1.0,1.0,40,0.00,,,0.00,Wunderground v.1.15,2013-04-27 18:38:00,
2013-04-27 14:44:00,71.9,46.3,30.28,ENE,67,1.0,1.0,40,0.00,,,0.00,Wunderground v.1.15,2013-04-27 18:44:00,
2013-04-27 14:50:00,72.0,45.0,30.28,North,355,1.0,1.0,38,0.00,,,0.00,Wunderground v.1.15,2013-04-27 18:50:00,
2013-04-27 14:56:00,72.4,44.6,30.27,NW,315,1.0,1.0,37,0.00,,,0.00,Wunderground v.1.15,2013-04-27 18:56:00,
2013-04-27 15:02:00,73.0,45.9,30.27,NW,315,1.0,1.0,38,0.00,,,0.00,Wunderground v.1.15,2013-04-27 19:02:00,
2013-04-27 15:08:00,73.5,46.3,30.27,West,275,1.0,1.0,38,0.00,,,0.00,Wunderground v.1.15,2013-04-27 19:08:00,
2013-04-27 15:14:00,73.0,45.9,30.27,South,188,1.0,2.0,38,0.00,,,0.00,Wunderground v.1.15,2013-04-27 19:14:00,
2013-04-27 15:20:00,73.6,45.0,30.27,East,92,1.0,1.0,36,0.00,,,0.00,Wunderground v.1.15,2013-04-27 19:20:00,
2013-04-27 15:26:00,74.0,45.3,30.27,NW,304,1.0,2.0,36,0.00,,,0.00,Wunderground v.1.15,2013-04-27 19:26:00,
2013-04-27 15:32:00,73.7,45.1,30.27,NE,54,1.0,2.0,36,0.00,,,0.00,Wunderground v.1.15,2013-04-27 19:32:00,
2013-04-27 15:38:00,73.2,43.1,30.26,NNW,345,1.0,2.0,34,0.00,,,0.00,Wunderground v.1.15,2013-04-27 19:38:00,
2013-04-27 15:44:00,72.7,44.9,30.26,East,80,1.0,3.0,37,0.00,,,0.00,Wunderground v.1.15,2013-04-27 19:44:00,
2013-04-27 15:50:00,72.6,46.2,30.26,East,80,1.0,1.0,39,0.00,,,0.00,Wunderground v.1.15,2013-04-27 19:50:00,
2013-04-27 15:56:00,72.4,45.4,30.26,East,80,0.0,1.0,38,0.00,,,0.00,Wunderground v.1.15,2013-04-27 19:56:00,
2013-04-27 16:02:00,72.2,43.0,30.26,North,355,1.0,2.0,35,0.00,,,0.00,Wunderground v.1.15,2013-04-27 20:02:00,
2013-04-27 16:08:00,72.3,45.9,30.25,North,9,1.0,2.0,39,0.00,,,0.00,Wunderground v.1.15,2013-04-27 20:08:00,
2013-04-27 16:14:00,72.3,46.6,30.25,North,9,0.0,1.0,40,0.00,,,0.00,Wunderground v.1.15,2013-04-27 20:14:00,
2013-04-27 16:20:00,72.1,48.4,30.25,North,9,0.0,0.0,43,0.00,,,0.00,Wunderground v.1.15,2013-04-27 20:20:00,
2013-04-27 16:26:00,71.8,47.5,30.25,North,9,0.0,0.0,42,0.00,,,0.00,Wunderground v.1.15,2013-04-27 20:26:00,
2013-04-27 16:32:00,71.3,47.0,30.25,North,9,0.0,1.0,42,0.00,,,0.00,Wunderground v.1.15,2013-04-27 20:32:00,
2013-04-27 16:38:00,71.1,45.5,30.25,North,9,0.0,1.0,40,0.00,,,0.00,Wunderground v.1.15,2013-04-27 20:38:00,
2013-04-27 16:44:00,70.8,47.2,30.25,North,9,0.0,0.0,43,0.00,,,0.00,Wunderground v.1.15,2013-04-27 20:44:00,
2013-04-27 16:50:00,70.5,48.1,30.25,North,9,0.0,0.0,45,0.00,,,0.00,Wunderground v.1.15,2013-04-27 20:50:00,
2013-04-27 16:56:00,70.1,48.4,30.25,North,9,0.0,0.0,46,0.00,,,0.00,Wunderground v.1.15,2013-04-27 20:56:00,
2013-04-27 17:02:00,69.9,49.3,30.25,North,9,0.0,0.0,48,0.00,,,0.00,Wunderground v.1.15,2013-04-27 21:02:00,
2013-04-27 17:08:00,69.8,49.8,30.25,North,9,0.0,0.0,49,0.00,,,0.00,Wunderground v.1.15,2013-04-27 21:08:00,
2013-04-27 17:14:00,69.5,50.0,30.25,North,9,0.0,0.0,50,0.00,,,0.00,Wunderground v.1.15,2013-04-27 21:14:00,
2013-04-27 17:20:00,69.4,49.9,30.25,North,9,0.0,0.0,50,0.00,,,0.00,Wunderground v.1.15,2013-04-27 21:20:00,
2013-04-27 17:26:00,69.3,49.9,30.25,North,9,0.0,0.0,50,0.00,,,0.00,Wunderground v.1.15,2013-04-27 21:26:00,
2013-04-27 17:32:00,69.2,48.1,30.25,North,9,0.0,0.0,47,0.00,,,0.00,Wunderground v.1.15,2013-04-27 21:32:00,
2013-04-27 17:38:00,69.2,49.2,30.25,North,9,0.0,0.0,49,0.00,,,0.00,Wunderground v.1.15,2013-04-27 21:38:00,
2013-04-27 17:44:00,69.0,50.1,30.25,North,9,0.0,0.0,51,0.00,,,0.00,Wunderground v.1.15,2013-04-27 21:44:00,
2013-04-27 17:50:00,68.7,50.9,30.25,North,9,0.0,0.0,53,0.00,,,0.00,Wunderground v.1.15,2013-04-27 21:50:00,
2013-04-27 17:56:00,68.6,51.3,30.25,North,9,0.0,0.0,54,0.00,,,0.00,Wunderground v.1.15,2013-04-27 21:56:00,
2013-04-27 18:02:00,68.5,51.2,30.24,North,9,0.0,0.0,54,0.00,,,0.00,Wunderground v.1.15,2013-04-27 22:02:00,
2013-04-27 18:08:00,68.4,53.5,30.24,North,9,0.0,0.0,59,0.00,,,0.00,Wunderground v.1.15,2013-04-27 22:08:00,
2013-04-27 18:14:00,68.4,50.6,30.24,North,9,0.0,0.0,53,0.00,,,0.00,Wunderground v.1.15,2013-04-27 22:14:00,
2013-04-27 18:20:00,68.5,52.7,30.24,North,9,0.0,0.0,57,0.00,,,0.00,Wunderground v.1.15,2013-04-27 22:20:00,
2013-04-27 18:26:00,68.5,51.7,30.24,North,9,0.0,0.0,55,0.00,,,0.00,Wunderground v.1.15,2013-04-27 22:26:00,
2013-04-27 18:32:00,68.4,53.0,30.24,North,9,0.0,0.0,58,0.00,,,0.00,Wunderground v.1.15,2013-04-27 22:32:00,
2013-04-27 18:38:00,68.3,52.5,30.24,North,9,0.0,0.0,57,0.00,,,0.00,Wunderground v.1.15,2013-04-27 22:38:00,
2013-04-27 18:44:00,68.1,52.8,30.24,North,9,0.0,0.0,58,0.00,,,0.00,Wunderground v.1.15,2013-04-27 22:44:00,
2013-04-27 18:50:00,68.0,53.6,30.24,North,9,0.0,0.0,60,0.00,,,0.00,Wunderground v.1.15,2013-04-27 22:50:00,
2013-04-27 18:56:00,67.7,52.9,30.24,North,9,0.0,0.0,59,0.00,,,0.00,Wunderground v.1.15,2013-04-27 22:56:00,
2013-04-27 19:02:00,67.4,52.6,30.24,North,9,0.0,0.0,59,0.00,,,0.00,Wunderground v.1.15,2013-04-27 23:02:00,
2013-04-27 19:08:00,67.1,52.3,30.24,North,9,0.0,0.0,59,0.00,,,0.00,Wunderground v.1.15,2013-04-27 23:08:00,
2013-04-27 19:14:00,67.0,52.7,30.24,North,9,0.0,0.0,60,0.00,,,0.00,Wunderground v.1.15,2013-04-27 23:14:00,
2013-04-27 19:20:00,66.7,52.4,30.23,North,9,0.0,0.0,60,0.00,,,0.00,Wunderground v.1.15,2013-04-27 23:20:00,
2013-04-27 19:26:00,66.6,53.2,30.23,North,9,0.0,0.0,62,0.00,,,0.00,Wunderground v.1.15,2013-04-27 23:26:00,
2013-04-27 19:32:00,66.4,53.0,30.23,North,9,0.0,0.0,62,0.00,,,0.00,Wunderground v.1.15,2013-04-27 23:32:00,
2013-04-27 19:38:00,66.2,52.8,30.23,North,9,0.0,0.0,62,0.00,,,0.00,Wunderground v.1.15,2013-04-27 23:38:00,
2013-04-27 19:44:00,65.9,52.9,30.23,North,9,0.0,0.0,63,0.00,,,0.00,Wunderground v.1.15,2013-04-27 23:44:00,
2013-04-27 19:50:00,65.6,52.7,30.23,North,9,0.0,0.0,63,0.00,,,0.00,Wunderground v.1.15,2013-04-27 23:50:00,
2013-04-27 19:56:00,65.2,52.3,30.23,North,9,0.0,0.0,63,0.00,,,0.00,Wunderground v.1.15,2013-04-27 23:56:00,
2013-04-27 20:02:00,64.7,52.2,30.23,North,9,0.0,0.0,64,0.00,,,0.00,Wunderground v.1.15,2013-04-28 00:02:00,
2013-04-27 20:08:00,64.4,52.0,30.23,North,9,0.0,0.0,64,0.00,,,0.00,Wunderground v.1.15,2013-04-28 00:08:00,
2013-04-27 20:14:00,64.0,52.8,30.23,North,9,0.0,0.0,67,0.00,,,0.00,Wunderground v.1.15,2013-04-28 00:14:00,
2013-04-27 20:20:00,63.7,52.5,30.23,North,9,0.0,0.0,67,0.00,,,0.00,Wunderground v.1.15,2013-04-28 00:20:00,
2013-04-27 20:26:00,63.5,52.7,30.23,North,9,0.0,0.0,68,0.00,,,0.00,Wunderground v.1.15,2013-04-28 00:26:00,
2013-04-27 20:32:00,63.2,52.9,30.23,North,9,0.0,0.0,69,0.00,,,0.00,Wunderground v.1.15,2013-04-28 00:32:00,
2013-04-27 20:38:00,63.0,53.4,30.23,North,9,0.0,0.0,71,0.00,,,0.00,Wunderground v.1.15,2013-04-28 00:38:00,
2013-04-27 20:44:00,62.7,52.8,30.23,North,9,0.0,0.0,70,0.00,,,0.00,Wunderground v.1.15,2013-04-28 00:44:00,
2013-04-27 20:50:00,62.5,52.2,30.23,North,9,0.0,0.0,69,0.00,,,0.00,Wunderground v.1.15,2013-04-28 00:50:00,
2013-04-27 20:56:00,62.5,53.7,30.23,North,9,0.0,0.0,73,0.00,,,0.00,Wunderground v.1.15,2013-04-28 00:56:00,
2013-04-27 21:02:00,62.3,53.5,30.23,North,9,0.0,0.0,73,0.00,,,0.00,Wunderground v.1.15,2013-04-28 01:02:00,
2013-04-27 21:08:00,62.2,53.4,30.23,North,9,0.0,0.0,73,0.00,,,0.00,Wunderground v.1.15,2013-04-28 01:08:00,
2013-04-27 21:14:00,61.9,52.8,30.24,North,9,0.0,0.0,72,0.00,,,0.00,Wunderground v.1.15,2013-04-28 01:14:00,
2013-04-27 21:20:00,61.7,53.7,30.24,North,9,0.0,0.0,75,0.00,,,0.00,Wunderground v.1.15,2013-04-28 01:20:00,
2013-04-27 21:26:00,61.5,53.9,30.24,North,9,0.0,0.0,76,0.00,,,0.00,Wunderground v.1.15,2013-04-28 01:26:00,
2013-04-27 21:32:00,61.3,53.7,30.24,North,9,0.0,0.0,76,0.00,,,0.00,Wunderground v.1.15,2013-04-28 01:32:00,
2013-04-27 21:38:00,61.2,53.6,30.24,North,9,0.0,0.0,76,0.00,,,0.00,Wunderground v.1.15,2013-04-28 01:38:00,
2013-04-27 21:44:00,61.0,53.0,30.24,North,9,0.0,0.0,75,0.00,,,0.00,Wunderground v.1.15,2013-04-28 01:44:00,
2013-04-27 21:50:00,60.8,53.2,30.24,North,9,0.0,0.0,76,0.00,,,0.00,Wunderground v.1.15,2013-04-28 01:50:00,
2013-04-27 21:56:00,60.7,53.8,30.24,North,9,0.0,0.0,78,0.00,,,0.00,Wunderground v.1.15,2013-04-28 01:56:00,
2013-04-27 22:02:00,60.5,53.3,30.24,North,9,0.0,0.0,77,0.00,,,0.00,Wunderground v.1.15,2013-04-28 02:02:00,
2013-04-27 22:08:00,60.4,53.9,30.24,North,9,0.0,0.0,79,0.00,,,0.00,Wunderground v.1.15,2013-04-28 02:08:00,
2013-04-27 22:14:00,60.3,53.8,30.24,North,9,0.0,0.0,79,0.00,,,0.00,Wunderground v.1.15,2013-04-28 02:14:00,
2013-04-27 22:20:00,60.1,53.9,30.25,North,9,0.0,0.0,80,0.00,,,0.00,Wunderground v.1.15,2013-04-28 02:20:00,
2013-04-27 22:26:00,59.9,53.7,30.25,North,9,0.0,0.0,80,0.00,,,0.00,Wunderground v.1.15,2013-04-28 02:26:00,
2013-04-27 22:32:00,59.8,53.6,30.25,North,9,0.0,0.0,80,0.00,,,0.00,Wunderground v.1.15,2013-04-28 02:32:00,
2013-04-27 22:38:00,59.6,53.4,30.25,North,9,0.0,0.0,80,0.00,,,0.00,Wunderground v.1.15,2013-04-28 02:38:00,
2013-04-27 22:44:00,59.5,53.7,30.24,North,9,0.0,0.0,81,0.00,,,0.00,Wunderground v.1.15,2013-04-28 02:44:00,
2013-04-27 22:50:00,59.4,53.6,30.24,North,9,0.0,0.0,81,0.00,,,0.00,Wunderground v.1.15,2013-04-28 02:50:00,
2013-04-27 22:56:00,59.4,53.9,30.24,North,9,0.0,0.0,82,0.00,,,0.00,Wunderground v.1.15,2013-04-28 02:56:00,
2013-04-27 23:02:00,59.3,53.8,30.24,North,9,0.0,0.0,82,0.00,,,0.00,Wunderground v.1.15,2013-04-28 03:02:00,
2013-04-27 23:08:00,59.2,53.4,30.24,North,9,0.0,0.0,81,0.00,,,0.00,Wunderground v.1.15,2013-04-28 03:08:00,
2013-04-27 23:14:00,59.0,53.2,30.23,North,9,0.0,0.0,81,0.00,,,0.00,Wunderground v.1.15,2013-04-28 03:14:00,
2013-04-27 23:20:00,58.9,53.1,30.23,North,9,0.0,0.0,81,0.00,,,0.00,Wunderground v.1.15,2013-04-28 03:20:00,
2013-04-27 23:26:00,58.7,52.5,30.23,North,9,0.0,0.0,80,0.00,,,0.00,Wunderground v.1.15,2013-04-28 03:26:00,
2013-04-27 23:32:00,58.7,52.2,30.23,North,9,0.0,0.0,79,0.00,,,0.00,Wunderground v.1.15,2013-04-28 03:32:00,
2013-04-27 23:38:00,58.6,52.8,30.23,North,9,0.0,0.0,81,0.00,,,0.00,Wunderground v.1.15,2013-04-28 03:38:00,
2013-04-27 23:44:00,58.5,52.4,30.22,North,9,0.0,0.0,80,0.00,,,0.00,Wunderground v.1.15,2013-04-28 03:44:00,
2013-04-27 23:50:00,58.5,52.0,30.22,North,9,0.0,0.0,79,0.00,,,0.00,Wunderground v.1.15,2013-04-28 03:50:00,
2013-04-27 23:56:00,58.4,52.3,30.22,North,9,0.0,0.0,80,0.00,,,0.00,Wunderground v.1.15,2013-04-28 03:56:00,